Time;durP1;ratioP1;P1;durP2;ratioP2;P2;SDS_P1;SDS_P2;PMS_P1;PMS_P2;Temp;Humidity;BMP_temperature;BMP_pressure;BME280_temperature;BME280_humidity;BME280_pressure;Samples;Min_cycle;Max_cycle;Signal;HPM_P1;HPM_P2
2023/07/27 00:02:22;;;;;;;;;;;;;;;21.88;70.93;98449.75;6248912;22;19941;-90
2023/07/27 00:04:48;;;;;;;;;;;;;;;21.72;71.34;98455.81;6223580;22;19926;-89
2023/07/27 00:07:14;;;;;;;;;;;;;;;21.52;72.45;98452.78;6224072;22;19919;-91
2023/07/27 00:09:39;;;;;;;;;;;;;;;21.39;73.97;98465.59;6275907;22;19942;-91
2023/07/27 00:12:05;;;;;;;;;;;;;;;21.56;73.39;98461.91;6275680;22;20036;-89
2023/07/27 00:14:31;;;;;;;;;;;;;;;21.84;72.06;98468.47;6276047;22;19919;-89
2023/07/27 00:16:57;;;;;;;;;;;;;;;21.82;72.08;98463.34;6276373;22;20234;-92
2023/07/27 00:19:22;;;;;;;;;;;;;;;21.66;72.48;98458.28;6250665;22;19923;-92
2023/07/27 00:21:48;;;;;;;;;;;;;;;21.67;72.35;98479.31;6277894;22;20421;-92
2023/07/27 00:24:14;;;;;;;;;;;;;;;21.81;72.16;98482.00;6250847;22;20396;-90
2023/07/27 00:26:41;;;;;;;;;;;;;;;21.50;73.02;98489.38;6277434;22;20349;-92
2023/07/27 00:29:07;;;;;;;;;;;;;;;21.20;74.13;98487.13;6276090;22;19919;-91
2023/07/27 00:31:33;;;;;;;;;;;;;;;21.02;76.00;98498.28;6276375;22;20261;-89
2023/07/27 00:33:59;;;;;;;;;;;;;;;20.95;76.11;98497.53;6277463;22;20368;-89
2023/07/27 00:36:25;;;;;;;;;;;;;;;20.89;76.50;98499.94;6250896;22;20349;-93
2023/07/27 00:38:51;;;;;;;;;;;;;;;20.84;76.62;98498.38;6251106;22;20006;-89
2023/07/27 00:41:16;;;;;;;;;;;;;;;20.82;76.96;98517.41;6277773;22;19919;-90
2023/07/27 00:43:42;;;;;;;;;;;;;;;20.74;77.65;98513.06;6277630;22;19919;-92
2023/07/27 00:46:08;;;;;;;;;;;;;;;20.83;76.84;98505.13;6250971;22;19946;-89
2023/07/27 00:48:34;;;;;;;;;;;;;;;20.84;76.44;98515.03;6251636;22;19926;-91
2023/07/27 00:51:00;;;;;;;;;;;;;;;21.03;76.00;98524.13;6251749;22;19926;-90
2023/07/27 00:53:26;;;;;;;;;;;;;;;20.92;75.89;98524.13;6277397;22;19919;-91
2023/07/27 00:55:52;;;;;;;;;;;;;;;20.91;76.89;98521.75;6278510;22;19995;-89
2023/07/27 00:58:18;;;;;;;;;;;;;;;20.92;75.88;98534.44;6226002;22;20389;-92
2023/07/27 01:00:44;;;;;;;;;;;;;;;20.65;77.22;98526.59;6276613;22;20261;-91
2023/07/27 01:03:09;;;;;;;;;;;;;;;20.78;76.96;98519.41;6276261;22;19918;-89
2023/07/27 01:05:36;;;;;;;;;;;;;;;20.82;76.60;98528.53;6250549;22;20380;-92
2023/07/27 01:08:02;;;;;;;;;;;;;;;20.83;76.49;98537.66;6226085;22;19926;-90
2023/07/27 01:10:38;;;;;;;;;;;;;;;20.87;76.67;98550.34;6277494;22;19919;-90
2023/07/27 01:13:12;;;;;;;;;;;;;;;20.74;76.15;98553.94;6250776;22;19944;-92
2023/07/27 01:15:42;;;;;;;;;;;;;;;20.50;77.05;98564.66;6277622;22;20357;-89
2023/07/27 01:18:15;;;;;;;;;;;;;;;20.39;77.62;98561.88;6225342;22;19919;-92
2023/07/27 01:20:53;;;;;;;;;;;;;;;20.21;78.43;98560.31;6225336;22;20304;-90
2023/07/27 01:23:31;;;;;;;;;;;;;;;20.07;79.71;98558.31;6277268;22;20001;-90
2023/07/27 01:26:15;;;;;;;;;;;;;;;20.05;80.18;98547.59;6276291;22;19919;-90
2023/07/27 01:28:55;;;;;;;;;;;;;;;19.89;80.41;98547.97;6275539;22;19919;-91
2023/07/27 01:31:23;;;;;;;;;;;;;;;19.86;81.01;98551.53;6275435;22;19945;-91
2023/07/27 01:33:59;;;;;;;;;;;;;;;19.78;81.27;98558.28;6249881;22;19973;-90
2023/07/27 01:36:27;;;;;;;;;;;;;;;19.77;81.25;98556.69;6249902;22;19926;-90
2023/07/27 01:38:54;;;;;;;;;;;;;;;19.69;81.62;98538.44;6249661;22;19919;-91
2023/07/27 01:41:23;;;;;;;;;;;;;;;19.61;81.70;98532.06;6224502;22;19942;-91
2023/07/27 01:43:49;;;;;;;;;;;;;;;19.60;81.13;98543.53;6276579;22;19919;-90
2023/07/27 01:46:15;;;;;;;;;;;;;;;19.61;80.74;98537.59;6275141;22;19919;-90
2023/07/27 01:48:42;;;;;;;;;;;;;;;19.57;80.39;98538.75;6276511;22;19920;-89
2023/07/27 01:51:09;;;;;;;;;;;;;;;19.52;80.53;98545.50;6249096;22;19919;-90
2023/07/27 01:53:36;;;;;;;;;;;;;;;19.51;81.22;98540.34;6275123;22;19919;-90
2023/07/27 01:56:06;;;;;;;;;;;;;;;19.45;81.33;98537.94;6224842;22;20257;-90
2023/07/27 01:58:33;;;;;;;;;;;;;;;19.42;81.78;98533.19;6275371;22;19955;-90
2023/07/27 02:00:59;;;;;;;;;;;;;;;19.45;81.64;98528.84;6249453;22;20265;-90
2023/07/27 02:03:25;;;;;;;;;;;;;;;19.46;82.25;98528.44;6275151;22;19926;-90
2023/07/27 02:05:51;;;;;;;;;;;;;;;19.51;82.37;98526.50;6274983;22;19919;-90
2023/07/27 02:08:17;;;;;;;;;;;;;;;19.57;82.68;98536.00;6276938;22;19919;-90
2023/07/27 02:10:47;;;;;;;;;;;;;;;19.61;82.38;98543.16;6275306;22;19919;-89
2023/07/27 02:13:20;;;;;;;;;;;;;;;19.63;81.78;98542.75;6224478;22;20014;-90
2023/07/27 02:15:54;;;;;;;;;;;;;;;19.57;82.14;98547.09;6249169;22;19923;-90
2023/07/27 02:18:23;;;;;;;;;;;;;;;19.51;83.23;98543.91;6274355;22;19915;-90
2023/07/27 02:20:49;;;;;;;;;;;;;;;19.53;83.33;98549.06;6275126;22;19938;-90
2023/07/27 02:23:18;;;;;;;;;;;;;;;19.61;83.26;98545.13;6275350;22;19973;-90
2023/07/27 02:25:44;;;;;;;;;;;;;;;19.65;83.20;98548.72;6274738;22;19974;-91
2023/07/27 02:28:10;;;;;;;;;;;;;;;19.73;83.03;98547.53;6249579;22;19919;-92
2023/07/27 02:30:37;;;;;;;;;;;;;;;19.76;83.25;98557.84;6223845;22;19930;-90
2023/07/27 02:33:03;;;;;;;;;;;;;;;19.81;83.21;98546.38;6275108;22;19927;-90
2023/07/27 02:35:28;;;;;;;;;;;;;;;19.84;83.30;98540.06;6250989;22;19993;-90
2023/07/27 02:37:55;;;;;;;;;;;;;;;19.80;82.20;98539.28;6251047;22;19926;-90
2023/07/27 02:40:24;;;;;;;;;;;;;;;19.96;82.10;98538.88;6276122;22;19919;-90
2023/07/27 02:42:50;;;;;;;;;;;;;;;20.27;80.62;98537.31;6243731;23;20021;-91
2023/07/27 02:45:15;;;;;;;;;;;;;;;20.35;79.80;98513.91;6167835;23;20412;-91
2023/07/27 02:47:41;;;;;;;;;;;;;;;20.32;79.42;98498.03;6217494;23;20002;-90
2023/07/27 02:50:07;;;;;;;;;;;;;;;20.09;80.09;98506.00;6218417;23;20261;-90
2023/07/27 02:52:45;;;;;;;;;;;;;;;20.06;80.92;98504.78;6220794;23;20417;-90
2023/07/27 02:55:11;;;;;;;;;;;;;;;20.06;81.20;98485.38;6243070;23;19916;-90
2023/07/27 02:57:37;;;;;;;;;;;;;;;20.46;78.92;98479.78;6191997;23;19943;-91
2023/07/27 03:00:04;;;;;;;;;;;;;;;20.46;78.95;98488.91;6218137;23;19994;-90
2023/07/27 03:02:32;;;;;;;;;;;;;;;20.26;79.39;98479.41;6221212;23;20341;-91
2023/07/27 03:05:00;;;;;;;;;;;;;;;20.22;79.56;98481.41;6194323;23;19920;-91
2023/07/27 03:07:28;;;;;;;;;;;;;;;20.28;79.13;98472.28;6194197;23;19950;-91
2023/07/27 03:09:55;;;;;;;;;;;;;;;20.28;79.45;98452.06;6216873;23;19927;-92
2023/07/27 03:12:22;;;;;;;;;;;;;;;20.32;79.75;98428.66;6243238;23;20007;-91
2023/07/27 03:14:47;;;;;;;;;;;;;;;20.36;79.68;98428.66;6244163;23;19920;-90
2023/07/27 03:17:13;;;;;;;;;;;;;;;20.47;78.81;98448.84;6217340;23;19919;-90
2023/07/27 03:19:39;;;;;;;;;;;;;;;20.45;78.64;98487.31;6204286;22;19919;-90
2023/07/27 03:22:05;;;;;;;;;;;;;;;20.52;78.91;98504.00;6226901;22;19919;-90
2023/07/27 03:24:32;;;;;;;;;;;;;;;20.62;78.44;98513.50;6275540;22;19919;-91
2023/07/27 03:27:00;;;;;;;;;;;;;;;20.74;78.50;98540.84;6278014;22;20001;-91
2023/07/27 03:29:25;;;;;;;;;;;;;;;20.79;77.86;98559.88;6276828;22;19930;-90
2023/07/27 03:31:51;;;;;;;;;;;;;;;20.81;78.41;98576.94;6276841;22;19926;-90
2023/07/27 03:34:17;;;;;;;;;;;;;;;20.75;77.80;98595.19;6277046;22;19923;-89
2023/07/27 03:36:43;;;;;;;;;;;;;;;20.80;78.15;98603.16;6224759;22;19926;-91
2023/07/27 03:39:08;;;;;;;;;;;;;;;20.86;78.07;98612.66;6227686;22;19920;-90
2023/07/27 03:41:35;;;;;;;;;;;;;;;21.27;76.25;98628.84;6227213;22;19919;-93
2023/07/27 03:44:00;;;;;;;;;;;;;;;21.52;74.58;98637.16;6278141;22;19925;-92
2023/07/27 03:46:26;;;;;;;;;;;;;;;21.61;74.18;98638.69;6233260;22;19923;-90
2023/07/27 03:48:53;;;;;;;;;;;;;;;21.55;74.36;98652.22;6227418;22;20345;-89
2023/07/27 03:51:19;;;;;;;;;;;;;;;21.59;73.83;98653.00;6226650;22;19938;-90
2023/07/27 03:53:44;;;;;;;;;;;;;;;21.73;73.22;98657.72;6280429;22;19938;-92
2023/07/27 03:56:10;;;;;;;;;;;;;;;21.66;73.81;98649.41;6275785;22;20491;-90
2023/07/27 03:58:38;;;;;;;;;;;;;;;21.60;73.73;98654.59;6277439;22;19923;-89
2023/07/27 04:01:03;;;;;;;;;;;;;;;21.72;73.22;98665.28;6250579;22;19926;-90
2023/07/27 04:03:29;;;;;;;;;;;;;;;21.61;74.14;98672.84;6281303;22;19915;-90
2023/07/27 04:05:55;;;;;;;;;;;;;;;21.66;74.14;98680.00;6254653;22;19919;-89
2023/07/27 04:08:21;;;;;;;;;;;;;;;21.86;73.12;98688.66;6225764;22;19919;-90
2023/07/27 04:10:47;;;;;;;;;;;;;;;21.83;73.54;98695.03;6277106;22;20436;-90
2023/07/27 04:13:13;;;;;;;;;;;;;;;21.81;73.47;98696.22;6275549;22;19919;-89
2023/07/27 04:15:39;;;;;;;;;;;;;;;21.75;74.33;98703.38;6275661;22;19919;-89
2023/07/27 04:18:05;;;;;;;;;;;;;;;22.00;73.05;98710.84;6228673;22;19919;-91
2023/07/27 04:20:31;;;;;;;;;;;;;;;22.00;73.13;98708.88;6277022;22;19946;-90
2023/07/27 04:22:57;;;;;;;;;;;;;;;21.77;74.28;98714.91;6277057;22;19919;-90
2023/07/27 04:25:23;;;;;;;;;;;;;;;21.58;75.23;98716.16;6226920;22;19968;-89
2023/07/27 04:27:50;;;;;;;;;;;;;;;21.62;75.12;98727.28;6250675;22;19926;-88
2023/07/27 04:30:15;;;;;;;;;;;;;;;21.93;73.32;98720.03;6275954;22;20113;-90
2023/07/27 04:32:41;;;;;;;;;;;;;;;22.07;73.14;98724.75;6278793;22;19923;-90
2023/07/27 04:35:07;;;;;;;;;;;;;;;21.98;73.29;98730.72;6250538;22;19923;-89
2023/07/27 04:37:33;;;;;;;;;;;;;;;22.05;73.35;98732.69;6250558;22;19926;-90
2023/07/27 04:39:59;;;;;;;;;;;;;;;21.94;73.96;98726.38;6252810;22;19949;-89
2023/07/27 04:42:26;;;;;;;;;;;;;;;22.14;73.01;98730.28;6277004;22;19923;-90
2023/07/27 04:44:51;;;;;;;;;;;;;;;22.30;72.05;98724.25;6275363;22;20002;-90
2023/07/27 04:47:17;;;;;;;;;;;;;;;22.50;70.99;98732.91;6279114;22;19965;-90
2023/07/27 04:49:43;;;;;;;;;;;;;;;22.36;71.66;98733.00;6226814;22;19965;-90
2023/07/27 04:52:09;;;;;;;;;;;;;;;22.55;70.33;98717.72;6253129;22;19919;-90
2023/07/27 04:54:35;;;;;;;;;;;;;;;22.41;71.62;98702.69;6229801;22;19919;-91
2023/07/27 04:57:01;;;;;;;;;;;;;;;22.22;72.00;98680.97;6251921;22;19919;-90
2023/07/27 04:59:27;;;;;;;;;;;;;;;22.26;72.09;98696.44;6224780;22;19919;-89
2023/07/27 05:01:52;;;;;;;;;;;;;;;22.40;71.87;98689.97;6279445;22;19923;-90
2023/07/27 05:04:18;;;;;;;;;;;;;;;22.35;72.07;98670.13;6226531;22;19919;-89
2023/07/27 05:06:44;;;;;;;;;;;;;;;22.19;73.99;98682.56;6226508;22;19919;-87
2023/07/27 05:09:10;;;;;;;;;;;;;;;22.23;73.58;98693.69;6275884;22;19923;-90
2023/07/27 05:11:36;;;;;;;;;;;;;;;22.30;72.44;98693.63;6252112;22;19923;-90
2023/07/27 05:14:01;;;;;;;;;;;;;;;22.33;72.15;98703.16;6280401;22;20306;-90
2023/07/27 05:16:28;;;;;;;;;;;;;;;22.42;71.51;98703.50;6276934;22;19955;-88
2023/07/27 05:18:53;;;;;;;;;;;;;;;22.30;72.02;98718.69;6277387;22;19919;-89
2023/07/27 05:21:19;;;;;;;;;;;;;;;22.25;72.14;98724.66;6225885;22;19951;-89
2023/07/27 05:23:45;;;;;;;;;;;;;;;22.20;72.35;98734.25;6277063;22;19919;-88
2023/07/27 05:26:11;;;;;;;;;;;;;;;22.25;72.15;98731.06;6251953;22;20360;-87
2023/07/27 05:28:37;;;;;;;;;;;;;;;22.54;70.83;98736.44;6279054;22;20383;-91
2023/07/27 05:31:02;;;;;;;;;;;;;;;22.78;70.09;98728.31;6278659;22;19927;-89
2023/07/27 05:33:28;;;;;;;;;;;;;;;22.95;69.31;98731.03;6276698;22;19920;-89
2023/07/27 05:35:54;;;;;;;;;;;;;;;22.79;69.87;98725.13;6225336;22;20402;-89
2023/07/27 05:38:20;;;;;;;;;;;;;;;22.73;71.04;98712.84;6228941;22;19919;-88
2023/07/27 05:40:45;;;;;;;;;;;;;;;22.68;70.79;98708.50;6227733;22;19981;-90
2023/07/27 05:43:11;;;;;;;;;;;;;;;22.57;72.29;98704.19;6278786;22;19926;-92
2023/07/27 05:45:38;;;;;;;;;;;;;;;22.47;72.17;98703.84;6227291;22;19949;-86
2023/07/27 05:48:04;;;;;;;;;;;;;;;22.56;72.23;98703.41;6228473;22;19926;-90
2023/07/27 05:50:30;;;;;;;;;;;;;;;22.55;72.78;98710.19;6280700;22;19919;-90
2023/07/27 05:52:56;;;;;;;;;;;;;;;22.83;70.96;98719.53;6276274;22;19994;-88
2023/07/27 05:55:22;;;;;;;;;;;;;;;22.91;70.73;98719.09;6277172;22;20309;-88
2023/07/27 05:57:48;;;;;;;;;;;;;;;22.74;71.46;98720.78;6226507;22;19919;-88
2023/07/27 06:00:14;;;;;;;;;;;;;;;22.85;70.29;98714.34;6227024;22;19915;-91
2023/07/27 06:02:39;;;;;;;;;;;;;;;22.70;71.03;98711.66;6279997;22;19986;-88
2023/07/27 06:05:05;;;;;;;;;;;;;;;22.38;71.26;98719.44;6278621;22;19923;-90
2023/07/27 06:07:32;;;;;;;;;;;;;;;22.28;72.40;98710.75;6257028;22;19998;-88
2023/07/27 06:09:58;;;;;;;;;;;;;;;22.39;72.19;98710.69;6257274;22;19919;-88
2023/07/27 06:12:24;;;;;;;;;;;;;;;22.44;71.79;98715.03;6279604;22;19959;-87
2023/07/27 06:14:51;;;;;;;;;;;;;;;22.88;70.57;98719.09;6204691;22;20364;-89
2023/07/27 06:17:17;;;;;;;;;;;;;;;22.82;69.19;98698.47;6227229;22;19924;-87
2023/07/27 06:19:42;;;;;;;;;;;;;;;22.90;68.90;98686.03;6252633;22;19922;-89
2023/07/27 06:22:08;;;;;;;;;;;;;;;22.80;70.19;98698.06;6276566;22;19919;-89
2023/07/27 06:24:34;;;;;;;;;;;;;;;22.73;70.33;98691.34;6227970;22;19919;-91
2023/07/27 06:27:00;;;;;;;;;;;;;;;22.81;70.52;98692.06;6277227;22;19919;-89
2023/07/27 06:29:26;;;;;;;;;;;;;;;22.98;69.40;98701.53;6279957;22;19919;-89
2023/07/27 06:31:51;;;;;;;;;;;;;;;22.86;68.81;98702.00;6256178;22;19927;-88
2023/07/27 06:34:17;;;;;;;;;;;;;;;22.64;69.47;98693.78;6278392;22;19981;-90
2023/07/27 06:36:43;;;;;;;;;;;;;;;22.54;68.25;98705.00;6226336;22;19919;-94
2023/07/27 06:39:09;;;;;;;;;;;;;;;22.52;68.54;98709.00;6226020;22;19945;-90
2023/07/27 06:41:34;;;;;;;;;;;;;;;22.48;68.81;98715.78;6280494;22;19962;-86
2023/07/27 06:44:00;;;;;;;;;;;;;;;22.37;67.43;98715.06;6277309;22;20191;-88
2023/07/27 06:46:26;;;;;;;;;;;;;;;22.50;68.42;98711.41;6224420;22;19923;-88
2023/07/27 06:48:52;;;;;;;;;;;;;;;22.82;68.62;98707.59;6278249;22;20345;-88
2023/07/27 06:51:18;;;;;;;;;;;;;;;22.98;66.38;98691.19;6231181;22;19973;-91
2023/07/27 06:53:44;;;;;;;;;;;;;;;23.11;66.46;98699.81;6252617;22;19919;-90
2023/07/27 06:56:10;;;;;;;;;;;;;;;23.25;66.22;98692.53;6277330;22;20253;-89
2023/07/27 07:01:40;;;;;;;;;;;;;;;23.40;65.22;98705.88;6159213;23;20024;-88
2023/07/27 07:04:07;;;;;;;;;;;;;;;23.43;62.81;98704.28;6183988;23;19920;-88
2023/07/27 07:06:33;;;;;;;;;;;;;;;23.29;62.49;98699.63;6160488;23;19920;-88
2023/07/27 07:08:59;;;;;;;;;;;;;;;23.24;61.60;98699.28;6134431;23;19951;-90
2023/07/27 07:11:27;;;;;;;;;;;;;;;23.24;62.02;98696.50;6157446;23;21845;-89
2023/07/27 07:13:52;;;;;;;;;;;;;;;23.30;61.98;98695.63;6161710;23;19990;-88
2023/07/27 07:16:18;;;;;;;;;;;;;;;23.31;61.64;98699.22;6183306;23;19920;-88
2023/07/27 07:18:45;;;;;;;;;;;;;;;23.09;61.12;98693.06;6160503;23;19920;-91
2023/07/27 07:21:11;;;;;;;;;;;;;;;23.05;61.57;98681.16;6157479;23;20339;-86
2023/07/27 07:23:37;;;;;;;;;;;;;;;23.04;61.89;98676.78;6182394;23;20006;-87
2023/07/27 07:26:03;;;;;;;;;;;;;;;23.20;63.32;98683.38;6112625;23;19920;-84
2023/07/27 07:28:29;;;;;;;;;;;;;;;23.45;61.39;98685.13;6183954;23;19924;-87
2023/07/27 07:30:56;;;;;;;;;;;;;;;23.33;61.14;98678.06;6134191;23;19966;-89
2023/07/27 07:33:22;;;;;;;;;;;;;;;23.45;61.09;98679.56;6184707;23;19920;-88
2023/07/27 07:35:48;;;;;;;;;;;;;;;23.57;57.87;98683.78;6184642;23;19923;-92
2023/07/27 07:38:14;;;;;;;;;;;;;;;23.92;61.16;98677.03;6224507;22;19998;-89
2023/07/27 07:40:39;;;;;;;;;;;;;;;23.92;57.48;98688.19;6224498;22;19915;-87
2023/07/27 07:43:07;;;;;;;;;;;;;;;23.84;57.35;98690.28;6275617;22;20354;-88
2023/07/27 07:45:33;;;;;;;;;;;;;;;23.75;57.83;98689.22;6275113;22;19919;-88
2023/07/27 07:47:59;;;;;;;;;;;;;;;23.59;57.98;98679.38;6274491;22;19923;-87
2023/07/27 07:50:37;;;;;;;;;;;;;;;23.72;58.25;98688.03;6277803;22;19943;-87
2023/07/27 07:53:20;;;;;;;;;;;;;;;23.87;60.40;98694.22;6274188;22;20260;-87
2023/07/27 07:55:46;;;;;;;;;;;;;;;23.83;59.43;98693.50;6274394;22;20307;-86
2023/07/27 07:58:12;;;;;;;;;;;;;;;23.72;58.24;98701.22;6276884;22;19941;-86
2023/07/27 08:00:50;;;;;;;;;;;;;;;23.79;59.02;98704.69;6278285;22;19919;-87
2023/07/27 08:03:16;;;;;;;;;;;;;;;23.87;59.96;98699.81;6228567;22;19965;-88
2023/07/27 08:05:54;;;;;;;;;;;;;;;24.04;58.38;98698.00;6276865;22;20002;-86
2023/07/27 08:08:19;;;;;;;;;;;;;;;24.07;58.72;98695.19;6274846;22;19919;-86
2023/07/27 08:10:45;;;;;;;;;;;;;;;24.05;57.16;98703.19;6277128;22;19922;-88
2023/07/27 08:13:11;;;;;;;;;;;;;;;23.94;57.02;98696.13;6251154;22;19927;-84
2023/07/27 08:15:37;;;;;;;;;;;;;;;24.07;60.10;98700.78;6275195;22;19942;-85
2023/07/27 08:18:03;;;;;;;;;;;;;;;24.17;58.66;98701.03;6248463;22;19919;-84
2023/07/27 08:20:42;;;;;;;;;;;;;;;24.29;58.17;98698.47;6277498;22;19920;-94
2023/07/27 08:23:32;;;;;;;;;;;;;;;24.37;58.17;98711.13;6283799;22;20336;-91
2023/07/27 08:26:00;;;;;;;;;;;;;;;24.15;55.00;98707.84;6227694;22;19941;-92
2023/07/27 08:29:01;;;;;;;;;;;;;;;24.15;58.33;98710.63;6241109;22;19925;-91
2023/07/27 08:31:27;;;;;;;;;;;;;;;24.23;58.86;98716.91;6284263;22;20001;-93
2023/07/27 08:34:05;;;;;;;;;;;;;;;24.23;55.59;98719.69;6262054;22;19942;-92
2023/07/27 08:36:36;;;;;;;;;;;;;;;24.28;55.92;98726.81;6255849;22;19924;-96
2023/07/27 08:39:02;;;;;;;;;;;;;;;24.38;56.38;98723.09;6263214;22;19911;-91
2023/07/27 08:41:29;;;;;;;;;;;;;;;24.47;56.60;98728.16;6256330;22;19923;-90
2023/07/27 08:45:01;;;;;;;;;;;;;;;24.55;54.73;98719.28;6292546;22;19926;-96
2023/07/27 08:47:27;;;;;;;;;;;;;;;24.61;55.17;98722.41;6232880;22;20006;-95
2023/07/27 08:50:00;;;;;;;;;;;;;;;24.66;55.56;98721.13;6238099;22;19967;-96
2023/07/27 08:52:26;;;;;;;;;;;;;;;24.69;55.01;98723.06;6267717;22;19919;-95
2023/07/27 08:54:51;;;;;;;;;;;;;;;24.74;56.27;98714.22;6290297;22;19989;-90
2023/07/27 08:57:21;;;;;;;;;;;;;;;24.76;55.92;98718.16;6259796;22;20409;-92
2023/07/27 08:59:51;;;;;;;;;;;;;;;24.80;56.29;98718.09;6263271;22;20261;-94
2023/07/27 09:02:22;;;;;;;;;;;;;;;24.89;55.38;98723.16;6265825;22;19923;-91
2023/07/27 09:04:50;;;;;;;;;;;;;;;24.93;54.23;98727.47;6264396;22;19923;-96
2023/07/27 09:07:37;;;;;;;;;;;;;;;25.00;54.68;98735.75;6268113;22;19924;-89
2023/07/27 09:10:13;;;;;;;;;;;;;;;25.05;55.79;98734.47;6271386;22;19923;-93
2023/07/27 09:12:38;;;;;;;;;;;;;;;24.99;53.66;98733.38;6272773;22;19955;-94
2023/07/27 09:15:18;;;;;;;;;;;;;;;25.04;56.30;98744.09;6311025;22;19919;-92
2023/07/27 09:18:14;;;;;;;;;;;;;;;25.01;54.83;98728.94;6268512;22;19926;-96
2023/07/27 09:20:40;;;;;;;;;;;;;;;25.11;56.42;98734.78;6290853;22;19923;-91
2023/07/27 09:23:09;;;;;;;;;;;;;;;25.22;55.79;98738.22;6285887;22;19919;-91
2023/07/27 09:25:58;;;;;;;;;;;;;;;25.16;54.93;98734.31;6260444;22;19919;-90
2023/07/27 09:31:11;;;;;;;;;;;;;;;25.14;56.06;98740.34;6333458;22;19903;-92
2023/07/27 09:37:03;;;;;;;;;;;;;;;25.15;55.52;98736.31;6296486;22;19923;-91
2023/07/27 09:40:09;;;;;;;;;;;;;;;25.18;55.36;98737.50;6270794;22;19911;-93
2023/07/27 09:43:11;;;;;;;;;;;;;;;25.11;52.59;98735.56;6299477;22;19919;-94
2023/07/27 09:46:03;;;;;;;;;;;;;;;25.19;55.00;98744.66;6294982;22;19919;-93
2023/07/27 09:51:22;;;;;;;;;;;;;;;25.38;53.55;98721.53;6314036;22;19946;-93
2023/07/27 09:53:57;;;;;;;;;;;;;;;25.42;54.38;98741.84;6273469;22;19927;-90
2023/07/27 09:59:20;;;;;;;;;;;;;;;25.61;56.08;98729.09;6285072;22;19971;-91
2023/07/27 10:02:10;;;;;;;;;;;;;;;25.33;52.55;98722.03;6277291;22;19943;-93
2023/07/27 10:04:41;;;;;;;;;;;;;;;25.44;54.31;98719.84;6295897;22;19919;-92
2023/07/27 10:07:09;;;;;;;;;;;;;;;25.54;54.22;98721.63;6229808;22;19915;-93
2023/07/27 10:10:21;;;;;;;;;;;;;;;25.66;54.84;98702.63;6241090;22;19900;-91
2023/07/27 10:12:47;;;;;;;;;;;;;;;25.68;52.65;98700.97;6217315;22;19915;-91
2023/07/27 10:15:20;;;;;;;;;;;;;;;25.44;53.41;98697.44;6218151;22;19922;-91
2023/07/27 10:35:45;;;;;;;;;;;;;;;25.63;57.92;98669.88;6296868;22;19955;-94
2023/07/27 10:39:34;;;;;;;;;;;;;;;25.66;56.68;98674.63;6296382;22;19937;-90
2023/07/27 10:49:04;;;;;;;;;;;;;;;25.99;56.05;98681.97;6305847;22;19910;-89
2023/07/27 10:51:34;;;;;;;;;;;;;;;26.00;56.17;98680.75;6276773;22;19903;-91
2023/07/27 10:55:05;;;;;;;;;;;;;;;25.97;54.40;98686.44;6271405;22;19923;-91
2023/07/27 10:57:37;;;;;;;;;;;;;;;25.95;54.82;98686.84;6250920;22;19899;-93
2023/07/27 11:00:08;;;;;;;;;;;;;;;26.09;56.07;98684.97;6291881;22;19938;-89
2023/07/27 11:02:36;;;;;;;;;;;;;;;26.17;55.60;98692.00;6301400;22;19929;-89
2023/07/27 11:05:28;;;;;;;;;;;;;;;26.34;55.44;98679.59;6238832;23;19923;-93
2023/07/27 11:08:12;;;;;;;;;;;;;;;26.65;54.33;98685.69;6126708;23;19927;-94
2023/07/27 11:10:50;;;;;;;;;;;;;;;26.82;56.01;98694.94;6131515;23;19920;-90
2023/07/27 11:16:12;;;;;;;;;;;;;;;26.61;53.38;98687.81;6302411;22;19923;-91
2023/07/27 11:18:48;;;;;;;;;;;;;;;26.53;55.49;98680.03;6247659;22;19923;-92
2023/07/27 11:21:15;;;;;;;;;;;;;;;26.42;54.29;98678.22;6263877;22;19926;-93
2023/07/27 11:23:45;;;;;;;;;;;;;;;26.36;54.14;98684.78;6261573;22;19919;-93
2023/07/27 11:26:12;;;;;;;;;;;;;;;26.31;55.37;98688.88;6216715;22;19923;-95
2023/07/27 11:28:39;;;;;;;;;;;;;;;26.41;54.62;98690.66;6221727;22;19935;-95
2023/07/27 11:31:07;;;;;;;;;;;;;;;26.44;53.28;98695.38;6216652;22;19970;-93
2023/07/27 11:33:34;;;;;;;;;;;;;;;26.46;53.85;98698.53;6234270;22;19930;-93
2023/07/27 11:36:00;;;;;;;;;;;;;;;26.53;55.06;98694.81;6234094;22;20006;-93
2023/07/27 11:38:32;;;;;;;;;;;;;;;26.67;54.16;98690.88;6235866;22;19915;-93
2023/07/27 11:40:58;;;;;;;;;;;;;;;26.83;52.07;98688.09;6213193;22;19923;-94
2023/07/27 11:43:27;;;;;;;;;;;;;;;27.07;51.52;98680.25;6267711;22;19923;-95
2023/07/27 11:45:56;;;;;;;;;;;;;;;27.29;51.37;98682.56;6247012;22;19926;-91
2023/07/27 11:48:44;;;;;;;;;;;;;;;27.20;50.58;98671.16;6271267;22;19943;-94
2023/07/27 11:51:36;;;;;;;;;;;;;;;27.27;51.85;98671.75;6298943;22;19957;-92
2023/07/27 11:54:42;;;;;;;;;;;;;;;27.26;49.28;98666.59;6266473;22;19930;-90
2023/07/27 11:57:08;;;;;;;;;;;;;;;27.04;50.62;98660.72;6237544;22;19927;-92
2023/07/27 11:59:34;;;;;;;;;;;;;;;27.06;52.10;98647.06;6240760;22;19919;-95
2023/07/27 12:02:09;;;;;;;;;;;;;;;27.04;52.79;98641.88;6297227;22;19915;-94
2023/07/27 12:04:35;;;;;;;;;;;;;;;27.05;53.92;98628.63;6217400;22;20013;-91
2023/07/27 12:07:01;;;;;;;;;;;;;;;27.12;52.33;98614.44;6293186;22;19919;-90
2023/07/27 12:12:42;;;;;;;;;;;;;;;27.30;52.01;98589.47;6235530;22;20261;-91
2023/07/27 12:15:33;;;;;;;;;;;;;;;27.49;52.67;98578.53;6209263;22;20002;-90
2023/07/27 12:18:01;;;;;;;;;;;;;;;27.59;50.46;98581.03;6205408;22;19918;-92
2023/07/27 12:20:28;;;;;;;;;;;;;;;27.62;52.56;98593.41;6236408;22;19919;-93
2023/07/27 12:22:58;;;;;;;;;;;;;;;27.66;51.60;98590.47;6197637;23;19924;-93
2023/07/27 12:25:27;;;;;;;;;;;;;;;27.51;51.61;98599.31;6172696;23;19988;-91
2023/07/27 12:27:53;;;;;;;;;;;;;;;27.60;52.49;98595.84;6172673;23;19920;-96
2023/07/27 12:30:20;;;;;;;;;;;;;;;27.61;52.65;98589.00;6148271;23;20520;-93
2023/07/27 12:32:48;;;;;;;;;;;;;;;27.46;51.89;98594.25;6094673;23;19931;-93
2023/07/27 12:35:28;;;;;;;;;;;;;;;27.41;52.75;98595.56;6068592;23;19925;-94
2023/07/27 12:37:55;;;;;;;;;;;;;;;27.54;51.64;98598.41;6140251;23;20338;-94
2023/07/27 12:40:35;;;;;;;;;;;;;;;27.53;51.40;98593.25;6134082;23;19968;-94
2023/07/27 12:45:44;;;;;;;;;;;;;;;27.31;52.54;98577.03;6289909;22;20279;-92
2023/07/27 12:48:26;;;;;;;;;;;;;;;27.29;51.88;98571.09;6212686;23;19923;-94
2023/07/27 12:51:26;;;;;;;;;;;;;;;27.25;51.93;98572.41;6178498;23;19933;-92
2023/07/27 12:53:53;;;;;;;;;;;;;;;27.14;52.92;98572.69;6179849;23;20011;-95
2023/07/27 12:56:46;;;;;;;;;;;;;;;27.08;52.70;98568.84;6231732;23;19919;-92
2023/07/27 12:59:13;;;;;;;;;;;;;;;26.89;52.95;98573.38;6235671;23;19920;-94
2023/07/27 13:04:45;;;;;;;;;;;;;;;26.65;53.91;98576.38;6232150;23;19924;-92
2023/07/27 13:07:15;;;;;;;;;;;;;;;26.54;55.69;98573.06;6204122;23;19919;-93
2023/07/27 13:09:49;;;;;;;;;;;;;;;26.51;54.97;98564.75;6238416;23;19967;-91
2023/07/27 13:12:15;;;;;;;;;;;;;;;26.48;54.97;98561.56;6191203;23;19900;-94
2023/07/27 13:15:02;;;;;;;;;;;;;;;26.66;53.62;98551.94;6193296;23;19922;-93
2023/07/27 13:17:31;;;;;;;;;;;;;;;26.80;54.71;98548.75;6240847;23;19911;-95
2023/07/27 13:20:01;;;;;;;;;;;;;;;27.01;53.39;98541.75;6221589;23;19939;-96
2023/07/27 13:22:37;;;;;;;;;;;;;;;27.17;54.61;98543.75;6268576;22;19928;-94
2023/07/27 13:25:04;;;;;;;;;;;;;;;27.38;52.70;98545.16;6213736;23;19924;-96
2023/07/27 13:30:44;;;;;;;;;;;;;;;27.75;53.80;98535.22;6263825;22;19942;-89
2023/07/27 13:33:27;;;;;;;;;;;;;;;27.88;52.30;98529.63;6184959;23;19938;-90
2023/07/27 13:36:05;;;;;;;;;;;;;;;27.96;52.37;98530.19;6214168;23;20259;-93
2023/07/27 13:38:31;;;;;;;;;;;;;;;27.97;51.88;98532.56;6260210;23;19958;-93
2023/07/27 13:41:07;;;;;;;;;;;;;;;27.96;53.18;98528.19;6206805;23;19919;-94
2023/07/27 13:43:35;;;;;;;;;;;;;;;28.08;53.01;98540.66;6207455;22;19924;-89
2023/07/27 13:46:02;;;;;;;;;;;;;;;28.02;52.32;98534.81;6218021;23;19920;-93
2023/07/27 13:48:32;;;;;;;;;;;;;;;27.98;53.11;98538.94;6233888;23;19900;-92
2023/07/27 13:51:27;;;;;;;;;;;;;;;27.95;52.82;98534.25;6235322;23;19927;-93
2023/07/27 14:03:47;;;;;;;;;;;;;;;27.44;53.40;98542.59;6356619;22;19903;-94
2023/07/27 14:11:52;;;;;;;;;;;;;;;27.11;53.79;98532.25;6316751;22;19923;-92
2023/07/27 14:14:46;;;;;;;;;;;;;;;27.04;55.28;98531.69;6304873;22;19923;-89